sensor_id;sensor_type;location;lat;lon;timestamp;pressure;altitude;pressure_sealevel;temperature;humidity
58473;BME280;44775;51.564;5.460;2022-12-29T00:01:47;99827.81;;;9.96;100.00
58473;BME280;44775;51.564;5.460;2022-12-29T00:04:13;99819.16;;;9.94;100.00
58473;BME280;44775;51.564;5.460;2022-12-29T00:06:39;99817.50;;;9.93;100.00
58473;BME280;44775;51.564;5.460;2022-12-29T00:09:05;99825.22;;;10.03;100.00
58473;BME280;44775;51.564;5.460;2022-12-29T00:11:30;99821.69;;;10.02;100.00
58473;BME280;44775;51.564;5.460;2022-12-29T00:13:56;99814.16;;;10.06;100.00
58473;BME280;44775;51.564;5.460;2022-12-29T00:16:44;99817.06;;;10.11;100.00
58473;BME280;44775;51.564;5.460;2022-12-29T00:19:10;99813.06;;;10.00;100.00
58473;BME280;44775;51.564;5.460;2022-12-29T00:21:57;99794.41;;;9.85;100.00
58473;BME280;44775;51.564;5.460;2022-12-29T00:24:43;99784.28;;;9.96;100.00
58473;BME280;44775;51.564;5.460;2022-12-29T00:27:29;99787.88;;;9.88;100.00
58473;BME280;44775;51.564;5.460;2022-12-29T00:30:17;99794.81;;;9.82;100.00
58473;BME280;44775;51.564;5.460;2022-12-29T00:33:09;99786.47;;;9.70;100.00
58473;BME280;44775;51.564;5.460;2022-12-29T00:36:02;99784.00;;;9.69;100.00
58473;BME280;44775;51.564;5.460;2022-12-29T00:38:31;99794.97;;;9.59;100.00
58473;BME280;44775;51.564;5.460;2022-12-29T00:41:16;99787.28;;;9.50;100.00
58473;BME280;44775;51.564;5.460;2022-12-29T00:44:00;99776.69;;;9.41;100.00
58473;BME280;44775;51.564;5.460;2022-12-29T00:46:32;99770.47;;;9.34;100.00
58473;BME280;44775;51.564;5.460;2022-12-29T00:48:58;99766.53;;;9.30;100.00
58473;BME280;44775;51.564;5.460;2022-12-29T00:51:42;99755.16;;;9.21;100.00
58473;BME280;44775;51.564;5.460;2022-12-29T00:54:08;99759.09;;;9.26;100.00
58473;BME280;44775;51.564;5.460;2022-12-29T00:56:33;99758.81;;;9.20;100.00
58473;BME280;44775;51.564;5.460;2022-12-29T00:59:07;99754.31;;;9.21;100.00
58473;BME280;44775;51.564;5.460;2022-12-29T01:01:34;99756.16;;;9.20;100.00
58473;BME280;44775;51.564;5.460;2022-12-29T01:03:59;99748.91;;;9.14;100.00
58473;BME280;44775;51.564;5.460;2022-12-29T01:06:25;99742.19;;;9.18;100.00
58473;BME280;44775;51.564;5.460;2022-12-29T01:08:51;99732.81;;;9.22;100.00
58473;BME280;44775;51.564;5.460;2022-12-29T01:11:38;99734.22;;;9.18;100.00
58473;BME280;44775;51.564;5.460;2022-12-29T01:14:04;99737.03;;;9.17;100.00
58473;BME280;44775;51.564;5.460;2022-12-29T01:16:30;99729.25;;;9.15;100.00
58473;BME280;44775;51.564;5.460;2022-12-29T01:18:55;99732.69;;;9.31;100.00
58473;BME280;44775;51.564;5.460;2022-12-29T01:21:21;99733.78;;;9.36;100.00
58473;BME280;44775;51.564;5.460;2022-12-29T01:23:46;99727.63;;;9.36;100.00
58473;BME280;44775;51.564;5.460;2022-12-29T01:26:13;99726.88;;;9.42;100.00
58473;BME280;44775;51.564;5.460;2022-12-29T01:28:39;99735.50;;;9.44;100.00
58473;BME280;44775;51.564;5.460;2022-12-29T01:31:07;99727.84;;;9.56;100.00
58473;BME280;44775;51.564;5.460;2022-12-29T01:33:32;99721.88;;;9.54;100.00
58473;BME280;44775;51.564;5.460;2022-12-29T01:36:02;99715.78;;;9.60;100.00
58473;BME280;44775;51.564;5.460;2022-12-29T01:38:28;99725.63;;;9.59;100.00
58473;BME280;44775;51.564;5.460;2022-12-29T01:40:53;99717.41;;;9.61;100.00
58473;BME280;44775;51.564;5.460;2022-12-29T01:43:19;99722.00;;;9.67;100.00
58473;BME280;44775;51.564;5.460;2022-12-29T01:45:51;99715.47;;;9.69;100.00
58473;BME280;44775;51.564;5.460;2022-12-29T01:48:19;99715.53;;;9.76;100.00
58473;BME280;44775;51.564;5.460;2022-12-29T01:50:52;99725.09;;;9.92;100.00
58473;BME280;44775;51.564;5.460;2022-12-29T01:53:22;99706.56;;;9.84;100.00
58473;BME280;44775;51.564;5.460;2022-12-29T01:55:52;99728.41;;;9.94;100.00
58473;BME280;44775;51.564;5.460;2022-12-29T01:58:20;99716.16;;;10.00;100.00
58473;BME280;44775;51.564;5.460;2022-12-29T02:00:47;99717.59;;;10.02;100.00
58473;BME280;44775;51.564;5.460;2022-12-29T02:03:12;99719.88;;;10.05;100.00
58473;BME280;44775;51.564;5.460;2022-12-29T02:05:44;99721.16;;;10.09;100.00
58473;BME280;44775;51.564;5.460;2022-12-29T02:08:13;99717.25;;;10.12;100.00
58473;BME280;44775;51.564;5.460;2022-12-29T02:10:40;99716.66;;;10.10;100.00
58473;BME280;44775;51.564;5.460;2022-12-29T02:13:06;99724.88;;;10.15;100.00
58473;BME280;44775;51.564;5.460;2022-12-29T02:15:45;99722.88;;;10.17;100.00
58473;BME280;44775;51.564;5.460;2022-12-29T02:21:04;99715.16;;;10.29;100.00
58473;BME280;44775;51.564;5.460;2022-12-29T02:23:41;99727.91;;;10.27;100.00
58473;BME280;44775;51.564;5.460;2022-12-29T02:31:52;99712.59;;;10.42;100.00
58473;BME280;44775;51.564;5.460;2022-12-29T02:35:01;99710.56;;;10.44;100.00
58473;BME280;44775;51.564;5.460;2022-12-29T02:37:41;99711.19;;;10.46;100.00
58473;BME280;44775;51.564;5.460;2022-12-29T02:43:38;99720.66;;;10.49;100.00
58473;BME280;44775;51.564;5.460;2022-12-29T02:46:17;99707.47;;;10.40;100.00
58473;BME280;44775;51.564;5.460;2022-12-29T02:48:51;99697.75;;;10.33;100.00
58473;BME280;44775;51.564;5.460;2022-12-29T02:51:27;99712.84;;;10.47;100.00
58473;BME280;44775;51.564;5.460;2022-12-29T02:53:56;99708.44;;;10.33;100.00
58473;BME280;44775;51.564;5.460;2022-12-29T02:56:40;99700.38;;;10.26;100.00
58473;BME280;44775;51.564;5.460;2022-12-29T02:59:06;99713.66;;;10.20;100.00
58473;BME280;44775;51.564;5.460;2022-12-29T03:04:39;99688.38;;;10.22;100.00
58473;BME280;44775;51.564;5.460;2022-12-29T03:15:02;99694.31;;;10.17;100.00
58473;BME280;44775;51.564;5.460;2022-12-29T03:17:57;99684.19;;;10.06;100.00
58473;BME280;44775;51.564;5.460;2022-12-29T03:20:38;99693.66;;;10.15;100.00
58473;BME280;44775;51.564;5.460;2022-12-29T03:23:06;99679.72;;;10.13;100.00
58473;BME280;44775;51.564;5.460;2022-12-29T03:25:36;99679.84;;;10.05;100.00
58473;BME280;44775;51.564;5.460;2022-12-29T03:28:20;99674.13;;;10.08;100.00
58473;BME280;44775;51.564;5.460;2022-12-29T03:30:47;99691.41;;;10.12;100.00
58473;BME280;44775;51.564;5.460;2022-12-29T03:33:15;99671.88;;;10.12;100.00
58473;BME280;44775;51.564;5.460;2022-12-29T03:35:44;99668.41;;;10.11;100.00
58473;BME280;44775;51.564;5.460;2022-12-29T03:38:18;99671.72;;;10.13;100.00
58473;BME280;44775;51.564;5.460;2022-12-29T03:40:53;99667.41;;;10.12;100.00
58473;BME280;44775;51.564;5.460;2022-12-29T03:43:21;99682.28;;;10.00;100.00
58473;BME280;44775;51.564;5.460;2022-12-29T03:45:47;99688.22;;;9.96;100.00
58473;BME280;44775;51.564;5.460;2022-12-29T03:48:12;99677.97;;;9.99;100.00
58473;BME280;44775;51.564;5.460;2022-12-29T03:50:38;99692.19;;;9.85;100.00
58473;BME280;44775;51.564;5.460;2022-12-29T03:53:03;99669.59;;;9.81;100.00
58473;BME280;44775;51.564;5.460;2022-12-29T03:55:29;99674.06;;;9.74;100.00
58473;BME280;44775;51.564;5.460;2022-12-29T03:57:54;99695.38;;;9.74;100.00
58473;BME280;44775;51.564;5.460;2022-12-29T04:00:20;99664.53;;;9.64;100.00
58473;BME280;44775;51.564;5.460;2022-12-29T04:02:46;99683.41;;;9.63;100.00
58473;BME280;44775;51.564;5.460;2022-12-29T04:05:11;99700.22;;;9.63;100.00
58473;BME280;44775;51.564;5.460;2022-12-29T04:07:37;99699.34;;;9.56;100.00
58473;BME280;44775;51.564;5.460;2022-12-29T04:10:03;99703.97;;;9.69;100.00
58473;BME280;44775;51.564;5.460;2022-12-29T04:12:28;99685.78;;;9.58;100.00
58473;BME280;44775;51.564;5.460;2022-12-29T04:14:54;99676.16;;;9.57;100.00
58473;BME280;44775;51.564;5.460;2022-12-29T04:17:19;99694.75;;;9.50;100.00
58473;BME280;44775;51.564;5.460;2022-12-29T04:19:45;99692.84;;;9.44;100.00
58473;BME280;44775;51.564;5.460;2022-12-29T04:22:10;99712.38;;;9.30;100.00
58473;BME280;44775;51.564;5.460;2022-12-29T04:24:37;99721.31;;;9.22;100.00
58473;BME280;44775;51.564;5.460;2022-12-29T04:27:02;99706.81;;;9.10;100.00
58473;BME280;44775;51.564;5.460;2022-12-29T04:29:28;99714.81;;;9.10;100.00
58473;BME280;44775;51.564;5.460;2022-12-29T04:31:53;99707.19;;;9.07;100.00
58473;BME280;44775;51.564;5.460;2022-12-29T04:34:19;99713.19;;;9.09;100.00
58473;BME280;44775;51.564;5.460;2022-12-29T04:36:44;99704.44;;;9.00;100.00
58473;BME280;44775;51.564;5.460;2022-12-29T04:39:09;99714.00;;;9.09;100.00
58473;BME280;44775;51.564;5.460;2022-12-29T04:41:35;99718.41;;;9.02;100.00
58473;BME280;44775;51.564;5.460;2022-12-29T04:44:00;99713.47;;;8.99;100.00
58473;BME280;44775;51.564;5.460;2022-12-29T04:46:26;99720.34;;;8.93;100.00
58473;BME280;44775;51.564;5.460;2022-12-29T04:48:51;99722.47;;;8.98;100.00
58473;BME280;44775;51.564;5.460;2022-12-29T04:51:17;99722.56;;;8.90;100.00
58473;BME280;44775;51.564;5.460;2022-12-29T04:53:42;99732.69;;;8.94;100.00
58473;BME280;44775;51.564;5.460;2022-12-29T04:56:08;99737.91;;;8.88;100.00
58473;BME280;44775;51.564;5.460;2022-12-29T04:58:34;99743.59;;;8.99;100.00
58473;BME280;44775;51.564;5.460;2022-12-29T05:01:00;99740.19;;;8.91;100.00
58473;BME280;44775;51.564;5.460;2022-12-29T05:03:25;99747.44;;;8.97;100.00
58473;BME280;44775;51.564;5.460;2022-12-29T05:05:55;99756.56;;;9.03;100.00
58473;BME280;44775;51.564;5.460;2022-12-29T05:08:21;99749.94;;;8.98;100.00
58473;BME280;44775;51.564;5.460;2022-12-29T05:10:47;99761.69;;;9.04;100.00
58473;BME280;44775;51.564;5.460;2022-12-29T05:13:13;99756.56;;;8.88;100.00
58473;BME280;44775;51.564;5.460;2022-12-29T05:15:38;99752.22;;;8.87;100.00
58473;BME280;44775;51.564;5.460;2022-12-29T05:18:04;99766.84;;;8.91;100.00
58473;BME280;44775;51.564;5.460;2022-12-29T05:20:29;99766.91;;;8.97;100.00
58473;BME280;44775;51.564;5.460;2022-12-29T05:22:55;99775.13;;;8.96;100.00
58473;BME280;44775;51.564;5.460;2022-12-29T05:25:20;99776.13;;;8.80;100.00
58473;BME280;44775;51.564;5.460;2022-12-29T05:27:45;99780.81;;;8.93;100.00
58473;BME280;44775;51.564;5.460;2022-12-29T05:30:11;99790.91;;;9.12;100.00
58473;BME280;44775;51.564;5.460;2022-12-29T05:32:37;99787.72;;;9.02;100.00
58473;BME280;44775;51.564;5.460;2022-12-29T05:35:03;99788.63;;;9.09;100.00
58473;BME280;44775;51.564;5.460;2022-12-29T05:37:28;99792.22;;;9.02;100.00
58473;BME280;44775;51.564;5.460;2022-12-29T05:39:54;99813.25;;;9.11;100.00
58473;BME280;44775;51.564;5.460;2022-12-29T05:42:19;99795.78;;;9.09;100.00
58473;BME280;44775;51.564;5.460;2022-12-29T05:44:44;99814.44;;;9.09;100.00
58473;BME280;44775;51.564;5.460;2022-12-29T05:47:10;99803.59;;;9.10;100.00
58473;BME280;44775;51.564;5.460;2022-12-29T05:49:35;99797.81;;;9.07;100.00
58473;BME280;44775;51.564;5.460;2022-12-29T05:52:01;99815.06;;;9.11;100.00
58473;BME280;44775;51.564;5.460;2022-12-29T05:54:26;99809.47;;;9.20;100.00
58473;BME280;44775;51.564;5.460;2022-12-29T05:56:52;99809.66;;;9.19;100.00
58473;BME280;44775;51.564;5.460;2022-12-29T05:59:17;99811.94;;;9.37;100.00
58473;BME280;44775;51.564;5.460;2022-12-29T06:01:42;99814.44;;;9.23;100.00
58473;BME280;44775;51.564;5.460;2022-12-29T06:04:08;99814.97;;;9.34;100.00
58473;BME280;44775;51.564;5.460;2022-12-29T06:06:33;99806.81;;;9.35;100.00
58473;BME280;44775;51.564;5.460;2022-12-29T06:08:59;99814.78;;;9.35;100.00
58473;BME280;44775;51.564;5.460;2022-12-29T06:11:24;99809.25;;;9.37;100.00
58473;BME280;44775;51.564;5.460;2022-12-29T06:13:50;99811.56;;;9.40;100.00
58473;BME280;44775;51.564;5.460;2022-12-29T06:16:15;99829.56;;;9.38;100.00
58473;BME280;44775;51.564;5.460;2022-12-29T06:18:41;99817.09;;;9.38;100.00
58473;BME280;44775;51.564;5.460;2022-12-29T06:21:06;99817.53;;;9.42;100.00
58473;BME280;44775;51.564;5.460;2022-12-29T06:23:32;99818.75;;;9.39;100.00
58473;BME280;44775;51.564;5.460;2022-12-29T06:25:57;99812.97;;;9.36;100.00
58473;BME280;44775;51.564;5.460;2022-12-29T06:28:23;99800.91;;;9.40;100.00
58473;BME280;44775;51.564;5.460;2022-12-29T06:30:49;99820.28;;;9.49;100.00
58473;BME280;44775;51.564;5.460;2022-12-29T06:33:15;99814.56;;;9.52;100.00
58473;BME280;44775;51.564;5.460;2022-12-29T06:35:42;99807.13;;;9.47;100.00
58473;BME280;44775;51.564;5.460;2022-12-29T06:38:08;99796.84;;;9.44;100.00
58473;BME280;44775;51.564;5.460;2022-12-29T06:40:33;99806.09;;;9.48;100.00
58473;BME280;44775;51.564;5.460;2022-12-29T06:42:59;99795.16;;;9.58;100.00
58473;BME280;44775;51.564;5.460;2022-12-29T06:45:24;99817.88;;;9.54;100.00
58473;BME280;44775;51.564;5.460;2022-12-29T06:47:50;99815.69;;;9.42;100.00
58473;BME280;44775;51.564;5.460;2022-12-29T06:50:15;99801.09;;;9.38;100.00
58473;BME280;44775;51.564;5.460;2022-12-29T06:52:41;99807.59;;;9.51;100.00
58473;BME280;44775;51.564;5.460;2022-12-29T06:55:06;99815.13;;;9.47;100.00
58473;BME280;44775;51.564;5.460;2022-12-29T06:57:32;99794.75;;;9.39;100.00
58473;BME280;44775;51.564;5.460;2022-12-29T06:59:57;99808.66;;;9.35;100.00
58473;BME280;44775;51.564;5.460;2022-12-29T07:02:23;99814.31;;;9.46;100.00
58473;BME280;44775;51.564;5.460;2022-12-29T07:04:51;99804.59;;;9.39;100.00
58473;BME280;44775;51.564;5.460;2022-12-29T07:07:18;99807.63;;;9.36;100.00
58473;BME280;44775;51.564;5.460;2022-12-29T07:09:43;99818.91;;;9.38;100.00
58473;BME280;44775;51.564;5.460;2022-12-29T07:12:09;99816.59;;;9.50;100.00
58473;BME280;44775;51.564;5.460;2022-12-29T07:14:34;99838.56;;;9.52;100.00
58473;BME280;44775;51.564;5.460;2022-12-29T07:17:00;99825.97;;;9.60;100.00
58473;BME280;44775;51.564;5.460;2022-12-29T07:19:26;99839.28;;;9.60;100.00
58473;BME280;44775;51.564;5.460;2022-12-29T07:21:54;99836.19;;;9.57;100.00
58473;BME280;44775;51.564;5.460;2022-12-29T07:24:19;99835.97;;;9.58;100.00
58473;BME280;44775;51.564;5.460;2022-12-29T07:26:45;99846.66;;;9.58;99.85
58473;BME280;44775;51.564;5.460;2022-12-29T07:29:10;99848.41;;;9.51;99.99
58473;BME280;44775;51.564;5.460;2022-12-29T07:31:36;99861.47;;;9.61;99.53
58473;BME280;44775;51.564;5.460;2022-12-29T07:34:01;99860.63;;;9.60;98.91
58473;BME280;44775;51.564;5.460;2022-12-29T07:36:27;99860.19;;;9.57;97.60
58473;BME280;44775;51.564;5.460;2022-12-29T07:38:52;99863.00;;;9.70;95.92
58473;BME280;44775;51.564;5.460;2022-12-29T07:41:17;99875.72;;;9.53;96.74
58473;BME280;44775;51.564;5.460;2022-12-29T07:43:46;99880.94;;;9.61;96.27
58473;BME280;44775;51.564;5.460;2022-12-29T07:46:13;99869.00;;;9.57;95.90
58473;BME280;44775;51.564;5.460;2022-12-29T07:48:38;99878.13;;;9.48;96.81
58473;BME280;44775;51.564;5.460;2022-12-29T07:51:04;99872.97;;;9.46;97.30
58473;BME280;44775;51.564;5.460;2022-12-29T07:53:29;99877.84;;;9.58;96.17
58473;BME280;44775;51.564;5.460;2022-12-29T07:55:55;99873.88;;;9.54;96.61
58473;BME280;44775;51.564;5.460;2022-12-29T07:58:21;99873.88;;;9.54;97.64
58473;BME280;44775;51.564;5.460;2022-12-29T08:00:46;99880.53;;;9.43;97.86
58473;BME280;44775;51.564;5.460;2022-12-29T08:03:12;99867.44;;;9.48;97.49
58473;BME280;44775;51.564;5.460;2022-12-29T08:05:37;99878.44;;;9.38;99.02
58473;BME280;44775;51.564;5.460;2022-12-29T08:08:03;99874.72;;;9.39;99.28
58473;BME280;44775;51.564;5.460;2022-12-29T08:10:28;99882.91;;;9.38;98.59
58473;BME280;44775;51.564;5.460;2022-12-29T08:12:54;99889.91;;;9.39;98.44
58473;BME280;44775;51.564;5.460;2022-12-29T08:15:19;99892.22;;;9.42;99.53
58473;BME280;44775;51.564;5.460;2022-12-29T08:17:45;99890.16;;;9.44;97.58
58473;BME280;44775;51.564;5.460;2022-12-29T08:20:10;99894.94;;;9.63;96.64
58473;BME280;44775;51.564;5.460;2022-12-29T08:22:36;99888.88;;;9.55;97.59
58473;BME280;44775;51.564;5.460;2022-12-29T08:25:02;99895.84;;;9.70;94.88
58473;BME280;44775;51.564;5.460;2022-12-29T08:27:28;99884.53;;;9.68;94.35
58473;BME280;44775;51.564;5.460;2022-12-29T08:29:53;99905.88;;;9.68;93.41
58473;BME280;44775;51.564;5.460;2022-12-29T08:32:19;99902.59;;;9.66;93.58
58473;BME280;44775;51.564;5.460;2022-12-29T08:34:45;99901.56;;;9.82;91.33
58473;BME280;44775;51.564;5.460;2022-12-29T08:37:11;99901.56;;;9.82;92.04
58473;BME280;44775;51.564;5.460;2022-12-29T08:39:36;99904.13;;;9.76;92.98
58473;BME280;44775;51.564;5.460;2022-12-29T08:42:02;99888.66;;;9.71;92.17
58473;BME280;44775;51.564;5.460;2022-12-29T08:44:27;99886.09;;;9.78;93.09
58473;BME280;44775;51.564;5.460;2022-12-29T08:46:52;99895.38;;;9.82;92.33
58473;BME280;44775;51.564;5.460;2022-12-29T08:49:18;99885.84;;;9.73;94.15
58473;BME280;44775;51.564;5.460;2022-12-29T08:51:43;99888.38;;;9.81;91.84
58473;BME280;44775;51.564;5.460;2022-12-29T08:54:09;99890.56;;;9.92;91.60
58473;BME280;44775;51.564;5.460;2022-12-29T08:56:34;99901.06;;;9.93;91.25
58473;BME280;44775;51.564;5.460;2022-12-29T08:59:00;99898.75;;;9.90;90.74
58473;BME280;44775;51.564;5.460;2022-12-29T09:01:25;99912.84;;;9.99;92.00
58473;BME280;44775;51.564;5.460;2022-12-29T09:03:51;99883.31;;;9.86;92.65
58473;BME280;44775;51.564;5.460;2022-12-29T09:06:17;99899.28;;;10.01;90.49
58473;BME280;44775;51.564;5.460;2022-12-29T09:08:43;99894.91;;;9.93;91.03
58473;BME280;44775;51.564;5.460;2022-12-29T09:11:12;99909.25;;;9.92;92.14
58473;BME280;44775;51.564;5.460;2022-12-29T09:13:38;99912.00;;;9.99;91.46
58473;BME280;44775;51.564;5.460;2022-12-29T09:16:04;99909.63;;;9.89;92.14
58473;BME280;44775;51.564;5.460;2022-12-29T09:18:29;99937.31;;;9.88;93.53
58473;BME280;44775;51.564;5.460;2022-12-29T09:20:57;99918.31;;;9.76;95.34
58473;BME280;44775;51.564;5.460;2022-12-29T09:23:23;99922.81;;;9.76;95.83
58473;BME280;44775;51.564;5.460;2022-12-29T09:25:48;99920.44;;;9.66;97.04
58473;BME280;44775;51.564;5.460;2022-12-29T09:28:14;99921.88;;;9.68;97.00
58473;BME280;44775;51.564;5.460;2022-12-29T09:30:39;99928.78;;;9.63;98.75
58473;BME280;44775;51.564;5.460;2022-12-29T09:33:04;99928.63;;;9.35;100.00
58473;BME280;44775;51.564;5.460;2022-12-29T09:35:30;99960.63;;;9.50;99.76
58473;BME280;44775;51.564;5.460;2022-12-29T09:37:55;99940.19;;;9.27;100.00
58473;BME280;44775;51.564;5.460;2022-12-29T09:40:27;99954.28;;;9.36;100.00
58473;BME280;44775;51.564;5.460;2022-12-29T09:46:04;99965.34;;;9.25;100.00
58473;BME280;44775;51.564;5.460;2022-12-29T09:48:38;99956.47;;;9.32;100.00
58473;BME280;44775;51.564;5.460;2022-12-29T09:51:11;99960.88;;;9.40;100.00
58473;BME280;44775;51.564;5.460;2022-12-29T09:53:49;99972.38;;;9.40;100.00
58473;BME280;44775;51.564;5.460;2022-12-29T09:56:19;99984.22;;;9.38;100.00
58473;BME280;44775;51.564;5.460;2022-12-29T09:58:59;99982.22;;;9.40;100.00
58473;BME280;44775;51.564;5.460;2022-12-29T10:02:10;99972.25;;;9.19;100.00
58473;BME280;44775;51.564;5.460;2022-12-29T10:04:39;99984.47;;;9.13;100.00
58473;BME280;44775;51.564;5.460;2022-12-29T10:10:34;99998.38;;;9.01;100.00
58473;BME280;44775;51.564;5.460;2022-12-29T10:13:26;100002.59;;;9.18;100.00
58473;BME280;44775;51.564;5.460;2022-12-29T10:24:10;100032.41;;;8.75;100.00
58473;BME280;44775;51.564;5.460;2022-12-29T10:26:42;100040.44;;;8.67;100.00
58473;BME280;44775;51.564;5.460;2022-12-29T10:29:20;100045.88;;;8.74;100.00
58473;BME280;44775;51.564;5.460;2022-12-29T10:32:00;100040.78;;;8.64;100.00
58473;BME280;44775;51.564;5.460;2022-12-29T10:34:33;100057.13;;;8.61;100.00
58473;BME280;44775;51.564;5.460;2022-12-29T10:39:51;100052.19;;;8.50;100.00
58473;BME280;44775;51.564;5.460;2022-12-29T10:44:53;100054.34;;;8.46;100.00
58473;BME280;44775;51.564;5.460;2022-12-29T10:47:23;100084.47;;;8.47;100.00
58473;BME280;44775;51.564;5.460;2022-12-29T10:49:50;100072.53;;;8.35;100.00
58473;BME280;44775;51.564;5.460;2022-12-29T10:52:17;100059.56;;;8.40;100.00
58473;BME280;44775;51.564;5.460;2022-12-29T10:55:02;100074.97;;;8.52;100.00
58473;BME280;44775;51.564;5.460;2022-12-29T10:57:38;100082.19;;;8.44;100.00
58473;BME280;44775;51.564;5.460;2022-12-29T11:05:43;100095.72;;;8.65;100.00
58473;BME280;44775;51.564;5.460;2022-12-29T11:08:17;100083.88;;;8.68;100.00
58473;BME280;44775;51.564;5.460;2022-12-29T11:10:44;100099.75;;;8.61;100.00
58473;BME280;44775;51.564;5.460;2022-12-29T11:13:19;100113.41;;;8.58;100.00
58473;BME280;44775;51.564;5.460;2022-12-29T11:15:50;100104.94;;;8.55;100.00
58473;BME280;44775;51.564;5.460;2022-12-29T11:18:26;100108.41;;;8.55;100.00
58473;BME280;44775;51.564;5.460;2022-12-29T11:21:00;100109.09;;;8.49;100.00
58473;BME280;44775;51.564;5.460;2022-12-29T11:23:33;100113.94;;;8.45;100.00
58473;BME280;44775;51.564;5.460;2022-12-29T11:26:21;100109.16;;;8.41;100.00
58473;BME280;44775;51.564;5.460;2022-12-29T11:31:29;100123.91;;;8.51;100.00
58473;BME280;44775;51.564;5.460;2022-12-29T11:33:54;100130.06;;;8.52;100.00
58473;BME280;44775;51.564;5.460;2022-12-29T11:36:22;100123.66;;;8.69;100.00
58473;BME280;44775;51.564;5.460;2022-12-29T11:38:51;100130.06;;;8.83;100.00
58473;BME280;44775;51.564;5.460;2022-12-29T11:41:26;100124.66;;;8.99;100.00
58473;BME280;44775;51.564;5.460;2022-12-29T11:43:55;100128.84;;;8.94;100.00
58473;BME280;44775;51.564;5.460;2022-12-29T11:46:28;100133.59;;;9.07;100.00
58473;BME280;44775;51.564;5.460;2022-12-29T11:48:56;100136.13;;;9.08;100.00
58473;BME280;44775;51.564;5.460;2022-12-29T11:51:33;100135.09;;;9.09;100.00
58473;BME280;44775;51.564;5.460;2022-12-29T11:54:03;100146.22;;;9.13;100.00
58473;BME280;44775;51.564;5.460;2022-12-29T11:56:37;100150.13;;;9.02;100.00
58473;BME280;44775;51.564;5.460;2022-12-29T12:02:24;100151.97;;;9.02;100.00
58473;BME280;44775;51.564;5.460;2022-12-29T12:05:01;100145.41;;;9.12;100.00
58473;BME280;44775;51.564;5.460;2022-12-29T12:07:40;100147.06;;;9.13;100.00
58473;BME280;44775;51.564;5.460;2022-12-29T12:10:13;100147.66;;;9.23;100.00
58473;BME280;44775;51.564;5.460;2022-12-29T12:12:47;100151.50;;;9.21;100.00
58473;BME280;44775;51.564;5.460;2022-12-29T12:15:29;100155.63;;;9.32;100.00
58473;BME280;44775;51.564;5.460;2022-12-29T12:18:21;100156.56;;;9.39;100.00
58473;BME280;44775;51.564;5.460;2022-12-29T12:20:52;100164.50;;;9.47;100.00
58473;BME280;44775;51.564;5.460;2022-12-29T12:23:36;100157.31;;;9.48;100.00
58473;BME280;44775;51.564;5.460;2022-12-29T12:26:11;100163.53;;;9.40;100.00
58473;BME280;44775;51.564;5.460;2022-12-29T12:28:48;100157.66;;;9.44;100.00
58473;BME280;44775;51.564;5.460;2022-12-29T12:34:14;100158.81;;;9.50;100.00
58473;BME280;44775;51.564;5.460;2022-12-29T12:39:46;100157.38;;;9.62;100.00
58473;BME280;44775;51.564;5.460;2022-12-29T12:48:29;100162.88;;;9.99;100.00
58473;BME280;44775;51.564;5.460;2022-12-29T12:51:25;100151.09;;;10.31;99.21
58473;BME280;44775;51.564;5.460;2022-12-29T12:56:52;100167.28;;;10.44;96.55
58473;BME280;44775;51.564;5.460;2022-12-29T13:02:29;100171.63;;;10.45;94.93
58473;BME280;44775;51.564;5.460;2022-12-29T13:08:03;100198.56;;;10.21;95.21
58473;BME280;44775;51.564;5.460;2022-12-29T13:19:06;100191.88;;;9.41;100.00
58473;BME280;44775;51.564;5.460;2022-12-29T13:24:50;100191.19;;;9.16;100.00
58473;BME280;44775;51.564;5.460;2022-12-29T13:27:44;100194.91;;;8.75;100.00
58473;BME280;44775;51.564;5.460;2022-12-29T13:30:16;100201.91;;;8.60;100.00
58473;BME280;44775;51.564;5.460;2022-12-29T13:36:00;100203.13;;;8.49;100.00
58473;BME280;44775;51.564;5.460;2022-12-29T13:38:45;100210.66;;;8.38;100.00
58473;BME280;44775;51.564;5.460;2022-12-29T13:44:01;100208.63;;;8.40;100.00
58473;BME280;44775;51.564;5.460;2022-12-29T13:46:33;100206.81;;;8.32;100.00
58473;BME280;44775;51.564;5.460;2022-12-29T13:49:20;100211.16;;;8.25;100.00
58473;BME280;44775;51.564;5.460;2022-12-29T13:52:02;100201.50;;;8.24;100.00
58473;BME280;44775;51.564;5.460;2022-12-29T13:54:40;100202.31;;;8.33;100.00
58473;BME280;44775;51.564;5.460;2022-12-29T14:00:03;100209.66;;;8.39;100.00
58473;BME280;44775;51.564;5.460;2022-12-29T14:05:27;100214.97;;;8.22;100.00
58473;BME280;44775;51.564;5.460;2022-12-29T14:07:59;100218.31;;;8.16;100.00
58473;BME280;44775;51.564;5.460;2022-12-29T14:12:51;100214.50;;;8.11;100.00
58473;BME280;44775;51.564;5.460;2022-12-29T14:15:22;100228.63;;;8.27;100.00
58473;BME280;44775;51.564;5.460;2022-12-29T14:18:03;100220.63;;;8.27;100.00
58473;BME280;44775;51.564;5.460;2022-12-29T14:20:30;100222.78;;;8.16;100.00
58473;BME280;44775;51.564;5.460;2022-12-29T14:23:14;100215.66;;;8.08;100.00
58473;BME280;44775;51.564;5.460;2022-12-29T14:28:40;100216.97;;;8.12;100.00
58473;BME280;44775;51.564;5.460;2022-12-29T14:34:14;100213.81;;;8.09;100.00
58473;BME280;44775;51.564;5.460;2022-12-29T14:36:34;100220.97;;;8.08;100.00
58473;BME280;44775;51.564;5.460;2022-12-29T14:39:02;100212.31;;;8.06;100.00
58473;BME280;44775;51.564;5.460;2022-12-29T14:41:33;100231.63;;;8.08;100.00
58473;BME280;44775;51.564;5.460;2022-12-29T14:47:04;100223.31;;;8.03;100.00
58473;BME280;44775;51.564;5.460;2022-12-29T14:49:40;100231.44;;;8.10;100.00
58473;BME280;44775;51.564;5.460;2022-12-29T14:54:43;100231.28;;;8.11;100.00
58473;BME280;44775;51.564;5.460;2022-12-29T14:57:25;100233.78;;;8.13;100.00
58473;BME280;44775;51.564;5.460;2022-12-29T15:00:19;100250.06;;;8.10;100.00
58473;BME280;44775;51.564;5.460;2022-12-29T15:02:50;100246.94;;;8.14;100.00
58473;BME280;44775;51.564;5.460;2022-12-29T15:05:26;100239.59;;;8.24;100.00